Time;durP1;ratioP1;P1;durP2;ratioP2;P2;SDS_P1;SDS_P2;PMS_P1;PMS_P2;Temp;Humidity;BMP_temperature;BMP_pressure;BME280_temperature;BME280_humidity;BME280_pressure;Samples;Min_cycle;Max_cycle;Signal;HPM_P1;HPM_P2
2022/08/22 00:02:43;;;;;;;8.43;2.52;;;;;;;18.30;79.70;101214.39;1709368;83;25188;-87
2022/08/22 00:05:27;;;;;;;4.33;1.85;;;;;;;18.29;79.88;101221.05;1704664;83;21428;-87
2022/08/22 00:08:14;;;;;;;6.55;2.27;;;;;;;18.29;79.93;101213.94;1677828;83;27183;-87
2022/08/22 00:11:24;;;;;;;3.98;2.12;;;;;;;18.30;79.95;101214.39;1652147;86;21038;-88
2022/08/22 00:14:25;;;;;;;4.08;2.25;;;;;;;18.31;79.77;101217.94;1639458;86;21531;-87
2022/08/22 00:16:59;;;;;;;7.50;2.35;;;;;;;18.26;79.77;101207.26;1625863;86;21821;-87
2022/08/22 00:19:50;;;;;;;5.42;2.17;;;;;;;18.21;79.77;101211.72;1650840;86;20983;-87
2022/08/22 00:22:40;;;;;;;4.15;1.92;;;;;;;18.19;79.92;101208.17;1637191;87;21044;-87
2022/08/22 00:25:45;;;;;;;8.35;2.08;;;;;;;18.22;79.99;101205.48;1689283;83;20997;-88
2022/08/22 00:28:15;;;;;;;;;;;;;;;18.23;80.12;101210.82;1675984;85;21040;-88
2022/08/22 00:31:10;;;;;;;6.60;2.47;;;;;;;18.28;80.21;101206.81;1668085;84;21240;-88
2022/08/22 00:33:54;;;;;;;3.60;2.00;;;;;;;18.28;80.21;101214.81;1660196;85;21117;-88
2022/08/22 00:36:35;;;;;;;7.30;2.10;;;;;;;18.29;80.32;101212.61;1643320;85;20967;-88
2022/08/22 00:39:21;;;;;;;4.70;1.95;;;;;;;18.32;80.45;101217.03;1633915;86;20967;-89
2022/08/22 00:42:30;;;;;;;6.42;2.02;;;;;;;18.35;80.39;101215.72;1631665;87;21055;-90
2022/08/22 00:45:26;;;;;;;5.00;2.17;;;;;;;18.35;80.27;101209.05;1618219;87;21734;-89
2022/08/22 00:48:15;;;;;;;4.42;2.00;;;;;;;18.32;80.21;101203.29;1611416;86;20998;-90
2022/08/22 00:51:03;;;;;;;7.30;2.33;;;;;;;18.30;80.13;101197.08;1632306;86;21059;-86
2022/08/22 00:54:03;;;;;;;5.47;2.98;;;;;;;18.27;80.13;101203.72;1619929;86;21003;-86
2022/08/22 00:56:59;;;;;;;4.08;2.12;;;;;;;18.28;80.21;101200.16;1633510;86;21488;-86
2022/08/22 00:59:44;;;;;;;3.20;2.10;;;;;;;18.30;80.23;101206.40;1633447;86;21749;-88
2022/08/22 01:02:37;;;;;;;3.60;1.98;;;;;;;18.29;80.12;101210.39;1642919;86;21006;-88
2022/08/22 01:05:32;;;;;;;5.67;2.30;;;;;;;18.32;80.35;101213.03;1674605;84;21034;-88
2022/08/22 01:08:22;;;;;;;5.28;2.22;;;;;;;18.34;80.36;101217.50;1625516;86;21624;-88
2022/08/22 01:11:03;;;;;;;9.58;2.00;;;;;;;18.34;80.39;101221.92;1647632;84;20996;-86
2022/08/22 01:13:53;;;;;;;8.03;1.87;;;;;;;18.35;80.39;101219.27;1647601;86;21775;-85
2022/08/22 01:16:53;;;;;;;2.95;1.92;;;;;;;18.31;80.34;101224.15;1689832;84;20984;-85
2022/08/22 01:19:51;;;;;;;8.25;2.25;;;;;;;18.29;80.36;101215.72;1633292;86;21020;-86
2022/08/22 01:22:50;;;;;;;7.50;2.30;;;;;;;18.26;80.38;101225.49;1632168;86;21040;-86
2022/08/22 01:26:07;;;;;;;5.67;2.25;;;;;;;18.26;80.53;101223.25;1651445;86;21012;-88
2022/08/22 01:28:40;;;;;;;4.50;2.33;;;;;;;18.23;80.52;101220.15;1632508;86;21748;-87
2022/08/22 01:31:36;;;;;;;5.33;2.40;;;;;;;18.26;80.72;101220.16;1633768;85;21101;-88
2022/08/22 01:34:32;;;;;;;4.50;2.33;;;;;;;18.26;80.62;101212.17;1632293;86;21020;-89
2022/08/22 01:37:13;;;;;;;5.00;2.08;;;;;;;18.23;80.60;101213.48;1632273;86;21482;-88
2022/08/22 01:40:04;;;;;;;5.05;2.17;;;;;;;18.20;80.66;101211.27;1632239;86;21064;-88
2022/08/22 01:43:08;;;;;;;6.08;2.50;;;;;;;18.23;80.71;101218.81;1632481;86;21765;-92
2022/08/22 01:46:00;;;;;;;9.30;2.42;;;;;;;18.19;80.68;101218.83;1632107;86;21079;-88
2022/08/22 01:48:50;;;;;;;4.90;2.22;;;;;;;18.22;80.73;101221.47;1645519;86;21048;-88
2022/08/22 01:51:28;;;;;;;6.58;2.40;;;;;;;18.23;80.83;101222.81;1658974;86;21886;-86
2022/08/22 01:54:03;;;;;;;4.17;2.22;;;;;;;18.22;80.80;101230.34;1659112;86;21012;-87
2022/08/22 01:56:36;;;;;;;7.62;2.02;;;;;;;18.20;80.75;101226.80;1650824;86;21842;-86
2022/08/22 01:59:09;;;;;;;6.67;3.10;;;;;;;18.19;80.77;101226.82;1632092;85;21002;-86
2022/08/22 02:01:53;;;;;;;7.22;2.67;;;;;;;18.16;80.71;101229.47;1632347;86;21007;-86
2022/08/22 02:04:40;;;;;;;;;;;;;;;18.14;80.80;101229.46;1637492;86;21024;-86
2022/08/22 02:07:26;;;;;;;3.08;2.20;;;;;;;18.16;80.87;101230.34;1646104;86;20155;-86
2022/08/22 02:10:39;;;;;;;3.70;2.40;;;;;;;18.17;80.92;101228.56;1651442;86;21765;-87
2022/08/22 02:13:14;;;;;;;6.37;2.22;;;;;;;18.15;80.88;101229.01;1658740;86;21003;-86
2022/08/22 02:15:48;;;;;;;5.37;1.90;;;;;;;18.14;80.76;101227.25;1650487;84;21010;-86
2022/08/22 02:18:28;;;;;;;6.47;2.00;;;;;;;18.12;80.81;101229.91;1656585;86;21023;-86
2022/08/22 02:21:05;;;;;;;6.53;3.40;;;;;;;18.12;80.79;101227.70;1641304;86;21008;-87
2022/08/22 02:23:55;;;;;;;6.72;2.50;;;;;;;18.10;80.62;101225.47;1658667;86;22561;-87
2022/08/22 02:26:46;;;;;;;4.35;2.30;;;;;;;18.05;80.63;101232.11;1663155;86;21000;-86
2022/08/22 02:29:19;;;;;;;3.30;2.10;;;;;;;18.00;80.60;101230.78;1650484;86;21014;-86
2022/08/22 02:31:56;;;;;;;5.45;2.30;;;;;;;17.98;80.57;101235.64;1631643;85;21203;-86
2022/08/22 02:34:55;;;;;;;4.67;2.30;;;;;;;17.93;80.45;101234.77;1657307;86;21036;-86
2022/08/22 02:37:55;;;;;;;6.00;2.15;;;;;;;17.90;80.64;101238.28;1654657;86;22548;-86
2022/08/22 02:40:42;;;;;;;6.28;1.82;;;;;;;17.90;80.70;101237.41;1649193;86;20984;-88
2022/08/22 02:43:29;;;;;;;5.53;1.90;;;;;;;17.89;80.70;101236.53;1631362;86;21021;-88
2022/08/22 02:46:33;;;;;;;3.95;2.22;;;;;;;17.87;80.68;101234.30;1650346;86;21060;-88
2022/08/22 02:49:12;;;;;;;4.80;1.90;;;;;;;17.81;80.50;101230.23;1649608;86;21059;-88
2022/08/22 02:51:58;;;;;;;4.90;2.12;;;;;;;17.71;80.55;101231.11;1657539;84;22731;-89
2022/08/22 02:54:49;;;;;;;5.37;2.10;;;;;;;17.65;80.56;101235.97;1654121;85;21554;-89
2022/08/22 02:57:46;;;;;;;4.05;2.20;;;;;;;17.57;80.68;101235.94;1631986;86;21036;-89
2022/08/22 03:00:21;;;;;;;2.25;1.80;;;;;;;17.54;80.91;101242.58;1632086;86;20997;-89
2022/08/22 03:03:07;;;;;;;6.42;2.35;;;;;;;17.54;81.10;101239.03;1651459;85;21550;-88
2022/08/22 03:05:42;;;;;;;3.47;2.10;;;;;;;17.53;81.13;101240.81;1629673;86;21765;-89
2022/08/22 03:08:27;;;;;;;5.47;2.20;;;;;;;17.54;81.34;101234.59;1632168;86;21015;-89
2022/08/22 03:11:17;;;;;;;3.65;2.02;;;;;;;17.55;81.27;101235.47;1623861;87;20992;-89
2022/08/22 03:13:49;;;;;;;2.90;1.90;;;;;;;17.56;81.33;101229.27;1609040;87;21008;-88
2022/08/22 03:16:36;;;;;;;4.70;2.35;;;;;;;17.56;81.41;101230.61;1593972;87;21104;-88
2022/08/22 03:19:26;;;;;;;3.67;2.27;;;;;;;17.59;81.47;101230.63;1633534;87;21766;-86
2022/08/22 03:22:01;;;;;;;5.47;2.10;;;;;;;17.63;81.64;101225.31;1632432;86;21118;-86
2022/08/22 03:24:40;;;;;;;3.20;2.20;;;;;;;17.67;81.65;101228.42;1621919;87;21019;-86
2022/08/22 03:27:23;;;;;;;5.67;2.67;;;;;;;17.71;81.61;101230.66;1628180;87;21052;-87
2022/08/22 03:29:57;;;;;;;3.35;2.10;;;;;;;17.74;81.61;101231.13;1611641;87;21030;-87
2022/08/22 03:32:43;;;;;;;5.90;2.22;;;;;;;17.76;81.54;101237.34;1611256;87;21766;-87
2022/08/22 03:35:11;;;;;;;7.00;2.60;;;;;;;17.77;81.49;101232.00;1627091;87;20990;-87
2022/08/22 03:37:41;;;;;;;4.03;2.27;;;;;;;17.76;81.54;101231.56;1629980;87;21031;-88
2022/08/22 03:40:36;;;;;;;4.12;2.30;;;;;;;17.78;81.62;101227.13;1605379;87;21023;-87
2022/08/22 03:43:25;;;;;;;7.30;2.60;;;;;;;17.80;81.52;101237.34;1631639;87;20983;-87
2022/08/22 03:46:20;;;;;;;7.35;2.42;;;;;;;17.79;81.39;101234.25;1628718;86;22416;-85
2022/08/22 03:49:25;;;;;;;7.42;2.45;;;;;;;17.78;81.43;101237.78;1623544;87;21006;-85
2022/08/22 03:52:15;;;;;;;3.90;2.22;;;;;;;17.79;81.50;101242.66;1619648;87;21000;-85
2022/08/22 03:55:11;;;;;;;7.10;2.20;;;;;;;17.79;81.38;101238.66;1631772;87;21022;-86
2022/08/22 03:58:27;;;;;;;4.45;2.10;;;;;;;17.83;81.50;101237.78;1612637;87;21039;-86
2022/08/22 04:01:13;;;;;;;6.78;2.45;;;;;;;17.87;81.51;101239.18;1623173;86;21794;-86
2022/08/22 04:04:05;;;;;;;4.85;2.45;;;;;;;17.93;81.50;101237.42;1643954;86;21105;-86
2022/08/22 04:07:23;;;;;;;4.42;2.30;;;;;;;18.00;81.56;101237.44;1622023;87;20995;-86
2022/08/22 04:10:32;;;;;;;5.37;2.65;;;;;;;18.06;81.40;101239.23;1653669;85;21007;-86
2022/08/22 04:13:42;;;;;;;8.30;2.27;;;;;;;18.10;81.30;101230.80;1673828;85;21015;-86
2022/08/22 04:16:39;;;;;;;4.10;2.35;;;;;;;18.17;81.26;101239.22;1679124;84;21781;-87
2022/08/22 04:19:26;;;;;;;7.95;3.00;;;;;;;18.20;81.05;101233.45;1647452;86;21019;-87
2022/08/22 04:22:13;;;;;;;5.17;2.80;;;;;;;18.25;81.14;101241.47;1645367;85;21011;-86
2022/08/22 04:24:45;;;;;;;6.25;2.45;;;;;;;18.32;81.13;101251.26;1638961;86;21027;-87
2022/08/22 04:27:37;;;;;;;3.47;2.45;;;;;;;18.37;80.94;101245.47;1638845;86;21071;-87
2022/08/22 04:30:39;;;;;;;5.20;2.17;;;;;;;18.43;80.87;101249.91;1639000;85;21744;-89
2022/08/22 04:33:35;;;;;;;4.45;2.27;;;;;;;18.44;80.61;101249.03;1673013;84;20992;-89
2022/08/22 04:36:11;;;;;;;4.72;2.20;;;;;;;18.44;80.52;101250.37;1670863;84;20987;-88
2022/08/22 04:38:51;;;;;;;4.62;2.35;;;;;;;18.49;80.54;101259.27;1657086;84;21054;-87
2022/08/22 04:41:32;;;;;;;3.92;2.33;;;;;;;18.60;80.72;101254.83;1662284;84;21006;-87
2022/08/22 04:44:04;;;;;;;4.30;2.30;;;;;;;18.73;80.75;101255.72;1663562;86;21789;-86
2022/08/22 04:46:39;;;;;;;6.90;2.47;;;;;;;18.84;80.56;101261.97;1663713;84;20998;-87
2022/08/22 04:49:32;;;;;;;4.65;2.55;;;;;;;18.94;80.38;101259.26;1647718;84;21925;-87
2022/08/22 04:52:27;;;;;;;5.00;2.30;;;;;;;19.06;80.27;101261.04;1665001;86;21261;-87
2022/08/22 04:55:35;;;;;;;4.72;2.55;;;;;;;19.18;80.02;101254.32;1634699;86;21500;-89
2022/08/22 04:58:46;;;;;;;6.62;3.05;;;;;;;19.34;79.98;101256.06;1671515;85;21767;-89
2022/08/22 05:01:24;;;;;;;4.87;2.37;;;;;;;19.52;79.67;101261.80;1660037;84;21485;-88
2022/08/22 05:04:07;;;;;;;8.40;3.27;;;;;;;19.81;79.55;101261.69;1659777;86;21043;-90
2022/08/22 05:06:53;;;;;;;;;;;;;;;;;;;;;
2022/08/22 05:09:16;;;;;;;8.45;2.62;;;;;;;20.15;78.96;101264.17;1624794;85;21016;-87
2022/08/22 05:11:44;;;;;;;2.98;2.08;;;;;;;20.23;78.31;101266.78;1654702;84;21788;-86
2022/08/22 05:14:22;;;;;;;5.37;2.60;;;;;;;20.19;78.21;101246.33;1639387;86;20976;-88
2022/08/22 05:16:51;;;;;;;5.45;2.77;;;;;;;20.41;77.93;101267.58;1644998;84;21565;-92
2022/08/22 05:19:29;;;;;;;7.85;3.90;;;;;;;20.50;77.85;101272.40;1655236;86;21028;-87
2022/08/22 05:21:55;;;;;;;6.05;4.15;;;;;;;20.53;77.27;101270.14;1656981;84;21012;-86
2022/08/22 05:24:43;;;;;;;8.65;4.53;;;;;;;20.54;77.25;101271.93;1642726;86;22683;-88
2022/08/22 05:27:22;;;;;;;6.08;3.70;;;;;;;20.59;77.13;101268.32;1658497;86;21019;-87
2022/08/22 05:29:52;;;;;;;6.47;4.62;;;;;;;20.65;77.11;101270.09;1631189;87;21570;-87
2022/08/22 05:32:27;;;;;;;7.90;4.28;;;;;;;20.75;76.94;101270.89;1621520;87;21485;-87
2022/08/22 05:35:03;;;;;;;6.12;4.03;;;;;;;20.85;76.88;101275.70;1629484;86;21087;-87
2022/08/22 05:37:48;;;;;;;7.80;3.72;;;;;;;20.98;76.68;101276.02;1658104;86;21966;-88
2022/08/22 05:40:19;;;;;;;7.53;3.10;;;;;;;21.10;76.68;101272.36;1656039;86;21010;-87
2022/08/22 05:42:46;;;;;;;5.50;3.27;;;;;;;21.27;76.42;101278.88;1659181;85;21047;-87
2022/08/22 05:45:13;;;;;;;8.45;2.87;;;;;;;21.36;76.19;101274.76;1644262;86;21054;-88
2022/08/22 05:47:46;;;;;;;6.33;2.77;;;;;;;21.45;76.05;101277.80;1636822;86;20973;-87
2022/08/22 05:50:48;;;;;;;6.67;3.12;;;;;;;21.53;75.80;101279.95;1644802;85;21815;-86
2022/08/22 05:53:19;;;;;;;4.53;2.83;;;;;;;21.69;75.92;101288.67;1637760;86;21078;-86
2022/08/22 05:56:12;;;;;;;4.78;2.60;;;;;;;21.85;75.74;101294.73;1674691;84;21008;-86
2022/08/22 05:58:47;;;;;;;7.50;2.80;;;;;;;21.97;75.59;101284.30;1695728;84;21485;-86
2022/08/22 06:01:45;;;;;;;6.55;2.77;;;;;;;22.07;75.26;101293.97;1694733;84;21023;-86
2022/08/22 06:04:41;;;;;;;3.72;2.70;;;;;;;22.16;75.19;101293.84;1685355;84;22379;-86
2022/08/22 06:07:22;;;;;;;7.37;3.25;;;;;;;22.25;75.12;101295.09;1699832;84;21019;-86
2022/08/22 06:10:18;;;;;;;5.62;2.98;;;;;;;22.41;75.04;101297.53;1697765;83;21054;-85
2022/08/22 06:12:59;;;;;;;8.38;2.80;;;;;;;22.51;74.70;101297.38;1669494;85;21062;-86
2022/08/22 06:15:45;;;;;;;5.53;2.58;;;;;;;22.55;74.39;101298.22;1689113;83;21482;-86
2022/08/22 06:18:15;;;;;;;4.45;2.62;;;;;;;22.62;74.40;101298.55;1689472;83;21866;-86
2022/08/22 06:20:57;;;;;;;6.90;2.87;;;;;;;22.73;74.30;101294.36;1689412;83;21470;-86
2022/08/22 06:23:38;;;;;;;8.55;3.27;;;;;;;22.81;74.08;101297.78;1689072;83;21468;-86
2022/08/22 06:26:05;;;;;;;5.67;2.45;;;;;;;22.94;73.98;101300.23;1678935;84;21955;-86
2022/08/22 06:28:42;;;;;;;6.40;2.62;;;;;;;23.03;73.80;101301.02;1689822;84;21005;-86
2022/08/22 06:31:20;;;;;;;8.33;2.30;;;;;;;23.05;73.18;101299.19;1659113;85;21878;-86
2022/08/22 06:34:11;;;;;;;8.40;2.75;;;;;;;23.05;73.03;101305.03;1680433;83;21473;-87
2022/08/22 06:36:47;;;;;;;4.40;2.30;;;;;;;23.09;72.90;101297.34;1642665;87;21098;-86
2022/08/22 06:39:24;;;;;;;3.70;2.10;;;;;;;23.11;72.91;101300.88;1635803;85;21050;-87
2022/08/22 06:42:12;;;;;;;4.28;2.65;;;;;;;23.27;72.89;101302.81;1630169;86;21046;-87
2022/08/22 06:45:19;;;;;;;6.78;2.30;;;;;;;23.42;72.85;101301.16;1662158;85;21800;-88
2022/08/22 06:47:54;;;;;;;7.45;2.37;;;;;;;23.57;72.69;101305.34;1651450;85;21547;-87
2022/08/22 06:50:42;;;;;;;9.03;2.83;;;;;;;23.79;72.77;101311.21;1638677;85;21009;-86
2022/08/22 06:53:34;;;;;;;7.58;2.58;;;;;;;23.92;72.05;101309.16;1634702;87;21025;-87
2022/08/22 06:56:12;;;;;;;6.40;2.08;;;;;;;23.93;71.69;101312.28;1640056;86;21504;-87
2022/08/22 06:58:44;;;;;;;5.80;2.45;;;;;;;23.88;71.36;101308.80;1662999;85;20997;-87
2022/08/22 07:01:40;;;;;;;11.18;3.87;;;;;;;23.84;71.25;101316.51;1658915;85;20990;-88
2022/08/22 07:04:09;;;;;;;10.65;3.55;;;;;;;23.79;71.30;101319.27;1638142;86;21020;-87
2022/08/22 07:06:49;;;;;;;11.45;3.10;;;;;;;23.69;71.23;101323.05;1637358;86;21013;-89
2022/08/22 07:09:26;;;;;;;9.60;3.20;;;;;;;23.66;71.37;101328.48;1672432;85;21057;-88
2022/08/22 07:11:55;;;;;;;5.78;3.02;;;;;;;23.78;71.76;101329.59;1651936;86;21710;-88
2022/08/22 07:14:41;;;;;;;6.58;2.80;;;;;;;23.94;71.73;101330.17;1703576;84;21001;-87
2022/08/22 07:17:10;;;;;;;7.70;2.83;;;;;;;23.97;71.06;101324.73;1688260;84;21002;-87
2022/08/22 07:20:01;;;;;;;9.28;3.00;;;;;;;24.01;71.05;101330.94;1654727;84;21126;-87
2022/08/22 07:22:31;;;;;;;11.33;3.58;;;;;;;24.05;70.89;101324.56;1658367;84;20981;-87
2022/08/22 07:25:11;;;;;;;8.78;4.70;;;;;;;24.11;70.78;101327.58;1693564;84;22558;-88
2022/08/22 07:28:04;;;;;;;6.62;2.95;;;;;;;24.15;70.64;101323.42;1675413;85;21530;-87
2022/08/22 07:30:44;;;;;;;10.48;3.45;;;;;;;24.26;70.63;101324.07;1687252;84;20974;-87
2022/08/22 07:33:16;;;;;;;9.95;3.52;;;;;;;24.19;69.74;101313.02;1693821;84;21048;-88
2022/08/22 07:35:45;;;;;;;8.30;3.50;;;;;;;24.14;69.90;101318.98;1690908;84;21424;-87
2022/08/22 07:38:41;;;;;;;9.25;3.77;;;;;;;24.15;70.02;101317.17;1687056;84;21796;-87
2022/08/22 07:41:14;;;;;;;8.95;3.98;;;;;;;24.15;69.68;101319.86;1656755;83;21030;-88
2022/08/22 07:43:53;;;;;;;7.87;3.05;;;;;;;24.12;69.62;101329.33;1707255;84;20982;-88
2022/08/22 07:46:34;;;;;;;6.87;3.20;;;;;;;24.05;69.63;101319.19;1690870;82;21023;-87
2022/08/22 07:49:12;;;;;;;6.67;2.72;;;;;;;24.00;69.48;101322.42;1700113;83;20982;-87
2022/08/22 07:51:54;;;;;;;8.85;4.25;;;;;;;23.99;69.52;101330.09;1702201;83;21758;-87
2022/08/22 07:54:29;;;;;;;7.58;2.95;;;;;;;23.95;69.46;101322.97;1677961;84;21412;-87
2022/08/22 07:57:13;;;;;;;8.68;3.35;;;;;;;24.00;69.45;101321.95;1674500;84;20978;-87
2022/08/22 07:59:53;;;;;;;9.10;3.27;;;;;;;24.02;69.55;101328.19;1695178;84;22026;-87
2022/08/22 08:02:20;;;;;;;9.05;3.08;;;;;;;24.01;69.38;101326.91;1702741;84;21006;-87
2022/08/22 08:04:49;;;;;;;9.00;3.22;;;;;;;24.18;69.51;101338.16;1691810;84;21755;-87
2022/08/22 08:07:17;;;;;;;8.63;2.67;;;;;;;24.21;68.87;101331.82;1685902;84;21554;-87
2022/08/22 08:10:04;;;;;;;5.53;2.60;;;;;;;24.36;68.90;101331.94;1670397;83;21001;-88
2022/08/22 08:12:39;;;;;;;10.43;5.28;;;;;;;24.55;68.69;101333.77;1699074;83;39874;-89
2022/08/22 08:15:11;;;;;;;7.20;3.60;;;;;;;24.84;68.63;101329.90;1715875;81;21046;-87
2022/08/22 08:17:38;;;;;;;7.22;3.25;;;;;;;24.92;67.56;101337.78;1692238;81;21774;-88
2022/08/22 08:20:09;;;;;;;4.45;2.58;;;;;;;24.94;67.31;101329.67;1703859;83;21007;-88
2022/08/22 08:22:37;;;;;;;8.35;3.12;;;;;;;25.09;67.26;101336.00;1695792;82;21044;-86
2022/08/22 08:25:04;;;;;;;7.22;2.72;;;;;;;25.24;66.68;101332.05;1701934;83;21115;-87
2022/08/22 08:31:28;;;;;;;9.27;3.00;;;;;;;25.31;66.06;101336.83;1612048;86;21035;-87
2022/08/22 08:34:13;;;;;;;8.23;3.17;;;;;;;25.24;65.60;101338.78;1698192;83;21513;-88
2022/08/22 08:36:56;;;;;;;6.28;2.90;;;;;;;25.06;64.90;101341.92;1688919;83;21501;-88
2022/08/22 08:39:33;;;;;;;4.47;2.27;;;;;;;24.78;65.27;101337.27;1687230;84;20996;-88
2022/08/22 08:42:14;;;;;;;8.30;2.50;;;;;;;24.68;65.24;101343.78;1682653;84;21654;-87
2022/08/22 08:45:13;;;;;;;10.03;2.40;;;;;;;24.60;65.45;101343.97;1671401;85;22571;-88
2022/08/22 08:48:01;;;;;;;10.20;3.02;;;;;;;24.61;65.66;101342.59;1683611;83;20972;-88
2022/08/22 08:50:36;;;;;;;6.55;2.55;;;;;;;24.60;65.53;101337.23;1672477;84;21423;-87
2022/08/22 08:53:40;;;;;;;9.80;2.87;;;;;;;24.60;65.42;101338.11;1655657;85;21497;-87
2022/08/22 08:56:27;;;;;;;6.60;2.72;;;;;;;24.70;65.49;101336.55;1688100;83;21096;-87
2022/08/22 08:59:24;;;;;;;8.40;2.02;;;;;;;24.74;65.05;101335.54;1699497;83;21898;-87
2022/08/22 09:02:08;;;;;;;9.50;2.00;;;;;;;24.87;65.34;101346.90;1699112;83;21138;-87
2022/08/22 09:05:00;;;;;;;10.65;3.02;;;;;;;24.94;65.04;101326.50;1691555;83;21044;-87
2022/08/22 09:07:45;;;;;;;9.00;2.30;;;;;;;24.99;65.01;101329.09;1689782;83;21025;-86
2022/08/22 09:11:03;;;;;;;9.48;2.40;;;;;;;24.95;64.62;101330.98;1692595;83;21006;-88
2022/08/22 09:14:03;;;;;;;5.20;2.50;;;;;;;25.01;64.08;101328.13;1693299;83;22527;-88
2022/08/22 09:16:39;;;;;;;6.65;2.22;;;;;;;25.00;64.60;101325.02;1693985;83;20999;-88
2022/08/22 09:19:34;;;;;;;5.72;2.15;;;;;;;25.18;64.23;101323.64;1694142;83;21465;-87
2022/08/22 09:22:36;;;;;;;7.03;2.30;;;;;;;25.19;64.37;101329.46;1705056;83;20980;-87
2022/08/22 09:25:30;;;;;;;7.78;3.30;;;;;;;25.17;64.04;101324.58;1690372;83;21012;-88
2022/08/22 09:28:07;;;;;;;10.10;3.25;;;;;;;25.13;63.61;101332.77;1665983;84;21746;-88
2022/08/22 09:31:00;;;;;;;10.88;2.30;;;;;;;24.90;63.51;101331.55;1686675;84;20999;-88
2022/08/22 09:33:37;;;;;;;8.23;2.80;;;;;;;24.93;64.19;101325.22;1712834;83;21493;-88
2022/08/22 09:36:16;;;;;;;5.20;2.35;;;;;;;24.87;63.69;101329.40;1659551;85;21680;-88
2022/08/22 09:38:57;;;;;;;4.58;2.17;;;;;;;24.78;63.90;101330.53;1652318;84;21103;-88
2022/08/22 09:42:00;;;;;;;6.10;2.37;;;;;;;24.72;63.75;101336.05;1695744;83;21654;-89
2022/08/22 09:44:33;;;;;;;7.35;2.85;;;;;;;24.67;63.65;101343.38;1712705;83;21012;-90
2022/08/22 09:47:29;;;;;;;8.43;2.22;;;;;;;24.56;64.03;101342.27;1695978;83;21003;-88
2022/08/22 09:50:12;;;;;;;6.58;2.33;;;;;;;24.70;64.06;101344.19;1688358;83;21070;-87
2022/08/22 09:53:10;;;;;;;3.77;1.57;;;;;;;24.91;63.46;101338.72;1667901;83;21485;-88
2022/08/22 09:56:06;;;;;;;6.87;2.30;;;;;;;24.91;63.46;101338.72;1692337;83;22582;-86
2022/08/22 09:59:01;;;;;;;8.98;2.92;;;;;;;24.97;63.57;101340.38;1687605;83;20984;-87
2022/08/22 10:01:48;;;;;;;5.33;2.50;;;;;;;25.17;63.33;101338.48;1676785;85;21037;-88
2022/08/22 10:05:01;;;;;;;6.37;2.75;;;;;;;25.37;63.39;101352.82;1673212;84;21033;-86
2022/08/22 10:08:08;;;;;;;6.67;2.72;;;;;;;25.43;62.72;101339.64;1683352;84;21031;-86
2022/08/22 10:10:53;;;;;;;9.05;2.80;;;;;;;25.47;62.45;101344.92;1680668;84;21772;-86
2022/08/22 10:13:31;;;;;;;5.62;1.90;;;;;;;25.55;62.32;101358.19;1657968;85;21540;-86
2022/08/22 10:16:35;;;;;;;7.70;2.47;;;;;;;25.51;61.75;101343.91;1647826;86;21047;-86
2022/08/22 10:19:16;;;;;;;4.87;2.70;;;;;;;25.53;62.07;101351.48;1651394;86;21469;-86
2022/08/22 10:22:03;;;;;;;5.70;1.90;;;;;;;25.45;62.12;101352.61;1632449;87;21055;-86
2022/08/22 10:25:00;;;;;;;6.65;2.42;;;;;;;25.54;62.05;101358.63;1632566;85;21790;-87
2022/08/22 10:27:44;;;;;;;4.08;1.98;;;;;;;25.54;62.04;101355.93;1651146;85;21035;-87
2022/08/22 10:30:22;;;;;;;8.20;2.27;;;;;;;25.69;61.92;101351.92;1632501;86;21020;-87
2022/08/22 10:33:12;;;;;;;8.50;3.20;;;;;;;25.75;61.15;101349.07;1640753;86;21113;-86
2022/08/22 10:36:02;;;;;;;9.15;2.58;;;;;;;25.74;61.11;101347.29;1669097;84;21071;-87
2022/08/22 10:38:50;;;;;;;4.03;2.40;;;;;;;25.89;60.70;101350.48;1629630;86;21923;-86
2022/08/22 10:41:42;;;;;;;8.83;2.25;;;;;;;25.92;60.65;101355.36;1639971;86;21464;-86
2022/08/22 10:44:32;;;;;;;6.85;4.30;;;;;;;26.00;60.03;101360.52;1646496;84;21074;-86
2022/08/22 10:47:06;;;;;;;5.42;2.05;;;;;;;25.89;59.83;101358.58;1612133;87;21026;-86
2022/08/22 10:49:52;;;;;;;4.47;2.30;;;;;;;25.76;59.46;101362.95;1632039;86;21043;-86
2022/08/22 10:52:33;;;;;;;5.28;2.20;;;;;;;25.51;59.60;101361.42;1632162;86;22352;-87
2022/08/22 10:55:24;;;;;;;8.15;2.85;;;;;;;25.24;59.83;101362.16;1642718;85;21471;-87
2022/08/22 10:58:05;;;;;;;4.60;2.10;;;;;;;24.98;59.88;101365.92;1636063;85;20987;-86
2022/08/22 11:00:55;;;;;;;6.17;2.80;;;;;;;24.80;60.03;101355.61;1647485;86;20992;-86
2022/08/22 11:03:58;;;;;;;5.42;2.22;;;;;;;24.71;60.59;101363.91;1628675;86;21015;-86
2022/08/22 11:06:41;;;;;;;5.10;2.40;;;;;;;24.63;60.77;101362.75;1640126;85;22095;-86
2022/08/22 11:09:32;;;;;;;;;;;;;;;24.55;60.87;101371.00;1659614;85;21079;-86
2022/08/22 11:12:03;;;;;;;4.60;1.92;;;;;;;24.43;60.60;101364.52;1674787;84;20232;-85
2022/08/22 11:15:06;;;;;;;6.85;2.50;;;;;;;24.38;60.66;101369.10;1696713;83;21603;-86
2022/08/22 11:17:56;;;;;;;6.42;2.25;;;;;;;24.32;60.70;101363.40;1651252;85;21014;-86
2022/08/22 11:20:34;;;;;;;5.70;2.12;;;;;;;24.31;60.95;101362.12;1676236;84;21782;-86
2022/08/22 11:23:31;;;;;;;6.55;2.02;;;;;;;24.35;60.71;101354.39;1700537;84;20995;-86
2022/08/22 11:26:16;;;;;;;13.13;3.00;;;;;;;24.50;61.21;101356.73;1700823;83;21004;-86
2022/08/22 11:29:02;;;;;;;6.65;2.25;;;;;;;24.75;61.06;101361.09;1700689;83;21447;-86
2022/08/22 11:31:51;;;;;;;7.90;2.20;;;;;;;24.96;60.59;101364.17;1700755;84;21051;-86
2022/08/22 11:34:31;;;;;;;7.67;3.10;;;;;;;25.00;60.43;101364.52;1676556;83;21833;-86
2022/08/22 11:37:07;;;;;;;8.25;3.15;;;;;;;25.05;60.38;101361.72;1674597;84;20968;-86
2022/08/22 11:39:51;;;;;;;5.25;2.37;;;;;;;25.03;60.17;101371.19;1633460;86;20971;-86
2022/08/22 11:42:31;;;;;;;6.50;2.67;;;;;;;25.05;60.30;101367.11;1649473;85;21030;-87
2022/08/22 11:45:00;;;;;;;6.12;2.22;;;;;;;25.00;59.97;101373.50;1636289;86;21032;-87
2022/08/22 11:47:45;;;;;;;11.43;2.67;;;;;;;24.89;60.14;101373.33;1640353;86;21753;-87
2022/08/22 11:50:38;;;;;;;6.40;2.92;;;;;;;24.92;60.61;101379.99;1644344;85;21017;-87
2022/08/22 11:53:28;;;;;;;5.07;1.77;;;;;;;25.07;60.79;101373.34;1642761;86;21489;-87
2022/08/22 11:56:15;;;;;;;5.22;1.98;;;;;;;25.07;60.79;101373.34;1696337;83;21771;-86
2022/08/22 11:58:57;;;;;;;5.10;2.10;;;;;;;25.07;60.06;101386.80;1667869;84;21039;-86
2022/08/22 12:01:51;;;;;;;6.42;2.58;;;;;;;24.97;60.16;101370.88;1692188;84;21756;-86
2022/08/22 12:04:45;;;;;;;6.87;2.17;;;;;;;25.00;60.19;101377.55;1692364;84;21388;-85
2022/08/22 12:07:18;;;;;;;3.10;1.80;;;;;;;25.07;60.22;101382.77;1700544;84;21854;-85
2022/08/22 12:10:01;;;;;;;8.47;3.73;;;;;;;25.13;59.41;101383.52;1676226;84;21081;-88
2022/08/22 12:12:59;;;;;;;8.50;2.52;;;;;;;24.99;59.26;101376.23;1660632;85;21054;-86
2022/08/22 12:15:37;;;;;;;6.55;2.27;;;;;;;24.91;59.16;101377.77;1694967;83;21874;-87
2022/08/22 12:18:41;;;;;;;6.47;2.08;;;;;;;24.88;59.31;101375.14;1644016;86;21030;-87
2022/08/22 12:21:23;;;;;;;;;;;;;;;24.80;58.77;101378.49;1638666;86;21027;-87
2022/08/22 12:24:11;;;;;;;4.92;1.95;;;;;;;24.78;58.30;101373.61;1617923;85;21149;-87
2022/08/22 12:26:55;;;;;;;4.95;1.85;;;;;;;24.72;58.12;101367.91;1671559;85;21010;-87
2022/08/22 12:29:56;;;;;;;4.40;1.87;;;;;;;24.77;58.68;101376.73;1667530;85;21806;-87
2022/08/22 12:32:59;;;;;;;5.00;1.95;;;;;;;24.86;58.08;101385.06;1695191;84;20983;-87
2022/08/22 12:35:52;;;;;;;3.10;1.47;;;;;;;24.87;58.29;101384.59;1695753;84;21051;-87
2022/08/22 12:38:42;;;;;;;5.83;1.70;;;;;;;24.82;57.33;101381.56;1645902;86;21026;-86
2022/08/22 12:41:50;;;;;;;5.75;2.30;;;;;;;24.66;57.41;101353.23;1683819;85;21015;-87
2022/08/22 12:44:37;;;;;;;5.05;1.67;;;;;;;24.85;57.20;101371.16;1668994;83;21774;-87
2022/08/22 12:47:12;;;;;;;4.45;2.00;;;;;;;24.97;56.96;101371.34;1688276;83;20995;-87
2022/08/22 12:50:05;;;;;;;4.22;1.77;;;;;;;25.03;57.31;101373.88;1688428;85;21492;-87
2022/08/22 12:52:49;;;;;;;5.22;1.80;;;;;;;25.13;57.21;101375.43;1669177;84;21007;-87
2022/08/22 12:55:48;;;;;;;6.37;2.02;;;;;;;25.14;57.14;101359.67;1674674;83;21548;-87
2022/08/22 12:59:01;;;;;;;4.53;1.75;;;;;;;25.24;57.16;101357.64;1669741;85;22418;-86